Station Historical Data
Daily Summary for September 13, 2017 Units:  Metric    English   Both
« Previous Day
Next Day »
Daily Weekly Monthly Yearly Custom
  High: Low: Average:
Temperature: 23.1 °C 6.6 °C 14.8 °C
Dew Point: 9.4 °C 0.9 °C 3.9 °C
Humidity: 78% 25% 52%
Wind Speed: 28.5km/h 0km/h 1.6km/h
Wind Gust: 33.8km/h - -
Wind- - WSW
Pressure: 1015.1 hPa 1012.8 hPa -
Precipitation: 0 mm    
Historical Graphs
 
 
Tabular Data for September 13, 2017
Time Temperature Dew Point Pressure Wind Wind Speed Wind Gust Humidity Rainfall Rate (Hourly) solar Conditions
00:03 9.6 °C 2.9 °C 1013.8 hPa Calm     63% 0 mm 0.0 W/m2 CLR
00:08 9.5 °C 2.8 °C 1013.8 hPa Calm     63% 0 mm 0.0 W/m2 CLR
00:13 9.3 °C 2.8 °C 1013.8 hPa Calm     64% 0 mm 0.0 W/m2 CLR
00:18 8.9 °C 2.7 °C 1013.8 hPa Calm     65% 0 mm 0.0 W/m2 CLR
00:23 8.9 °C 2.7 °C 1013.8 hPa Calm     65% 0 mm 0.0 W/m2 CLR
00:28 8.9 °C 2.7 °C 1013.8 hPa Calm     65% 0 mm 0.0 W/m2 CLR
00:33 8.9 °C 2.7 °C 1013.8 hPa Calm     65% 0 mm 0.0 W/m2 CLR
00:38 8.8 °C 2.6 °C 1013.8 hPa Calm     65% 0 mm 0.0 W/m2 CLR
00:43 8.6 °C 2.6 °C 1013.8 hPa Calm     66% 0 mm 0.0 W/m2 CLR
00:48 8.4 °C 2.6 °C 1013.8 hPa Calm     67% 0 mm 0.0 W/m2 CLR
00:53 8.1 °C 2.6 °C 1013.8 hPa Calm     68% 0 mm 0.0 W/m2 CLR
00:58 8.2 °C 2.7 °C 1013.8 hPa Calm     68% 0 mm 0.0 W/m2 CLR
01:03 8.2 °C 2.7 °C 1013.8 hPa Calm     68% 0 mm 0.0 W/m2 CLR
01:08 8.4 °C 2.8 °C 1013.8 hPa Calm     68% 0 mm 0.0 W/m2 CLR
01:13 8.4 °C 2.8 °C 1013.8 hPa Calm     68% 0 mm 0.0 W/m2 CLR
01:18 8.4 °C 2.8 °C 1013.8 hPa Calm     68% 0 mm 0.0 W/m2 CLR
01:23 8.3 °C 2.7 °C 1013.8 hPa Calm     68% 0 mm 0.0 W/m2 CLR
01:28 8.5 °C 2.9 °C 1013.8 hPa Calm     68% 0 mm 0.0 W/m2 CLR
01:33 8.4 °C 3.1 °C 1013.8 hPa Calm     69% 0 mm 0.0 W/m2 CLR
01:38 8.2 °C 2.8 °C 1013.8 hPa Calm     69% 0 mm 0.0 W/m2 CLR
01:43 8.1 °C 2.8 °C 1013.8 hPa Calm     69% 0 mm 0.0 W/m2 CLR
01:48 8.2 °C 2.8 °C 1013.8 hPa Calm     69% 0 mm 0.0 W/m2 CLR
01:53 8.2 °C 2.8 °C 1013.8 hPa Calm     69% 0 mm 0.0 W/m2 CLR
01:58 7.9 °C 2.6 °C 1013.8 hPa Calm     69% 0 mm 0.0 W/m2 CLR
02:03 8 °C 2.7 °C 1013.8 hPa Calm     69% 0 mm 0.0 W/m2 CLR
02:08 8.2 °C 2.8 °C 1013.8 hPa Calm     69% 0 mm 0.0 W/m2 CLR
02:13 8.1 °C 2.8 °C 1013.8 hPa Calm     69% 0 mm 0.0 W/m2 CLR
02:18 8.3 °C 2.9 °C 1013.8 hPa Calm     69% 0 mm 0.0 W/m2 CLR
02:23 8.2 °C 2.8 °C 1013.8 hPa Calm     69% 0 mm 0.0 W/m2 CLR
02:28 8.3 °C 2.9 °C 1013.8 hPa Calm     69% 0 mm 0.0 W/m2 CLR
02:33 8.2 °C 2.8 °C 1013.8 hPa Calm     69% 0 mm 0.0 W/m2 CLR
02:38 8.3 °C 2.9 °C 1013.8 hPa Calm     69% 0 mm 0.0 W/m2 CLR
02:43 8.3 °C 2.9 °C 1013.8 hPa Calm     69% 0 mm 0.0 W/m2 CLR
02:48 8.2 °C 2.8 °C 1013.8 hPa Calm     69% 0 mm 0.0 W/m2 CLR
02:53 8.1 °C 2.8 °C 1013.8 hPa Calm     69% 0 mm 0.0 W/m2 CLR
02:58 8 °C 2.7 °C 1013.8 hPa Calm     69% 0 mm 0.0 W/m2 CLR
03:03 8.1 °C 2.8 °C 1014.1 hPa Calm     69% 0 mm 0.0 W/m2 CLR
03:08 8.1 °C 2.8 °C 1014.1 hPa Calm     69% 0 mm 0.0 W/m2 CLR
03:13 8.1 °C 2.9 °C 1013.8 hPa SW 7.6 km/h 7.6 km/h 70% 0 mm 0.0 W/m2 CLR
03:18 8.3 °C 2.9 °C 1014.1 hPa Calm     69% 0 mm 0.0 W/m2 CLR
03:20 8.3 °C 2.9 °C 1014.1 hPa Calm     69% 0 mm 0.0 W/m2 CLR
03:25 8.2 °C 3.1 °C 1013.8 hPa Calm     70% 0 mm 0.0 W/m2 CLR
03:30 7.9 °C 2.8 °C 1013.8 hPa Calm     70% 0 mm 0.0 W/m2 CLR
03:35 7.9 °C 2.8 °C 1013.8 hPa Calm     70% 0 mm 0.0 W/m2 CLR
03:40 7.9 °C 2.8 °C 1013.8 hPa Calm     70% 0 mm 0.0 W/m2 CLR
03:45 7.8 °C 2.9 °C 1014.1 hPa Calm     71% 0 mm 0.0 W/m2 CLR
03:50 7.8 °C 2.9 °C 1014.1 hPa Calm     71% 0 mm 0.0 W/m2 CLR
03:55 7.8 °C 2.9 °C 1013.8 hPa Calm     71% 0 mm 0.0 W/m2 CLR
04:00 7.5 °C 2.6 °C 1014.1 hPa Calm     71% 0 mm 0.0 W/m2 CLR
04:05 7.2 °C 2.3 °C 1014.1 hPa Calm     71% 0 mm 0.0 W/m2 CLR
04:10 7.1 °C 2.4 °C 1014.1 hPa Calm     72% 0 mm 0.0 W/m2 CLR
04:15 7.2 °C 2.5 °C 1014.1 hPa Calm     72% 0 mm 0.0 W/m2 CLR
04:20 7.4 °C 2.7 °C 1014.1 hPa Calm     72% 0 mm 0.0 W/m2 CLR
04:25 7.4 °C 2.5 °C 1014.1 hPa Calm     71% 0 mm 0.0 W/m2 CLR
04:30 7.5 °C 2.8 °C 1014.4 hPa Calm     72% 0 mm 0.0 W/m2 CLR
04:35 7.2 °C 2.5 °C 1014.4 hPa Calm     72% 0 mm 0.0 W/m2 CLR
04:40 7.1 °C 2.6 °C 1014.1 hPa Calm     73% 0 mm 0.0 W/m2 CLR
04:45 7.1 °C 2.6 °C 1014.1 hPa Calm     73% 0 mm 0.0 W/m2 CLR
04:50 7.3 °C 2.8 °C 1014.4 hPa Calm     73% 0 mm 0.0 W/m2 CLR
04:55 7.4 °C 3.1 °C 1014.4 hPa Calm     74% 0 mm 0.0 W/m2 CLR
05:00 7.4 °C 2.9 °C 1014.4 hPa Calm     73% 0 mm 0.0 W/m2 CLR
05:05 7.3 °C 2.9 °C 1014.4 hPa Calm     74% 0 mm 0.0 W/m2 CLR
05:10 7.4 °C 3.1 °C 1014.1 hPa Calm     74% 0 mm 0.0 W/m2 CLR
05:15 7.6 °C 3.3 °C 1014.4 hPa Calm     74% 0 mm 0.0 W/m2 CLR
05:20 7.8 °C 3.4 °C 1014.4 hPa Calm     74% 0 mm 0.0 W/m2 CLR
05:25 7.9 °C 3.6 °C 1014.4 hPa Calm     74% 0 mm 0.0 W/m2 CLR
05:30 7.9 °C 3.3 °C 1014.4 hPa Calm   7.4 km/h 73% 0 mm 0.0 W/m2 CLR
05:35 7.9 °C 3.3 °C 1014.4 hPa Calm     73% 0 mm 0.0 W/m2 CLR
05:40 7.8 °C 3.3 °C 1014.4 hPa Calm     73% 0 mm 0.0 W/m2 CLR
05:45 7.5 °C 3.2 °C 1014.4 hPa Calm     74% 0 mm 0.0 W/m2 CLR
05:50 7.4 °C 3.3 °C 1014.4 hPa Calm     75% 0 mm 0.0 W/m2 CLR
05:55 7.3 °C 3.2 °C 1014.8 hPa Calm     75% 0 mm 0.0 W/m2 CLR
06:00 7.3 °C 3.2 °C 1014.8 hPa Calm     75% 0 mm 0.0 W/m2 CLR
06:05 7.4 °C 3.3 °C 1014.8 hPa Calm     75% 0 mm 0.0 W/m2 CLR
06:10 7.3 °C 3.2 °C 1014.8 hPa Calm     75% 0 mm 0.0 W/m2 CLR
06:15 7.1 °C 2.9 °C 1014.8 hPa Calm     75% 0 mm 0.0 W/m2 CLR
06:20 7.1 °C 3.2 °C 1014.8 hPa Calm     76% 0 mm 0.0 W/m2 CLR
06:25 7.2 °C 3.2 °C 1014.8 hPa Calm     76% 0 mm 0.0 W/m2 CLR
06:30 7.2 °C 3.2 °C 1014.8 hPa Calm     76% 0 mm 0.0 W/m2 CLR
06:32 7.2 °C 3.2 °C 1014.8 hPa Calm     76% 0 mm 0.0 W/m2 CLR
06:37 7.1 °C 3.2 °C 1014.8 hPa Calm     76% 0 mm 0.0 W/m2 CLR
06:42 6.9 °C 3.2 °C 1014.8 hPa Calm     77% 0 mm 0.0 W/m2 CLR
06:47 6.8 °C 3.1 °C 1014.8 hPa Calm     77% 0 mm 0.0 W/m2 CLR
06:52 6.8 °C 3.1 °C 1014.8 hPa Calm     77% 0 mm 0.0 W/m2 CLR
06:57 6.7 °C 3.1 °C 1015.1 hPa Calm     78% 0 mm 0.0 W/m2 CLR
07:02 6.8 °C 3.2 °C 1015.1 hPa Calm     78% 0 mm 0.0 W/m2 CLR
07:07 6.9 °C 3.3 °C 1015.1 hPa Calm     78% 0 mm 0.0 W/m2 CLR
07:12 7.5 °C 3.9 °C 1014.8 hPa Calm     78% 0 mm 0.0 W/m2 CLR
07:17 7.6 °C 4 °C 1015.1 hPa Calm     78% 0 mm 0.0 W/m2 CLR
07:22 8.2 °C 4.4 °C 1015.1 hPa Calm     77% 0 mm 0.0 W/m2 CLR
07:27 8.4 °C 4.6 °C 1015.1 hPa Calm     77% 0 mm 0.0 W/m2 CLR
07:32 8.6 °C 4.8 °C 1015.1 hPa Calm     77% 0 mm 0.0 W/m2 CLR
07:33 8.7 °C 4.9 °C 1015.1 hPa Calm     77% 0 mm 0.0 W/m2 CLR
07:38 9 °C 5 °C 1015.1 hPa Calm     76% 0 mm 0.0 W/m2 CLR
07:43 9.3 °C 5.1 °C 1015.1 hPa Calm     75% 0 mm 0.0 W/m2 CLR
07:48 9.8 °C 5.6 °C 1015.1 hPa Calm     75% 0 mm 0.0 W/m2 CLR
07:53 10.3 °C 5.9 °C 1015.1 hPa Calm     74% 0 mm 0.0 W/m2 CLR
07:58 10.6 °C 5.9 °C 1014.8 hPa Calm     73% 0 mm 0.0 W/m2 CLR
08:03 11.8 °C 6.7 °C 1014.8 hPa Calm     71% 0 mm 0.0 W/m2 OVC
08:08 12.3 °C 6.8 °C 1014.8 hPa Calm     69% 0 mm 0.0 W/m2 OVC
08:13 12.6 °C 7.1 °C 1014.8 hPa Calm     69% 0 mm 0.0 W/m2 OVC
08:18 13.3 °C 7.1 °C 1014.8 hPa Calm     66% 0 mm 0.0 W/m2 OVC
08:23 13.8 °C 7.3 °C 1014.8 hPa Calm     65% 0 mm 0.0 W/m2 OVC
08:28 14.2 °C 7.7 °C 1014.8 hPa Calm     65% 0 mm 0.0 W/m2 OVC
08:33 14.6 °C 7.6 °C 1014.8 hPa Calm     63% 0 mm 0.0 W/m2 OVC
08:38 15 °C 7.8 °C 1014.8 hPa Calm     62% 0 mm 0.0 W/m2 OVC
08:43 15.3 °C 8.1 °C 1014.8 hPa Calm     62% 0 mm 0.0 W/m2 OVC
08:48 15.6 °C 8.1 °C 1014.8 hPa Calm     61% 0 mm 0.0 W/m2 OVC
08:53 16.4 °C 8.8 °C 1014.8 hPa Calm     61% 0 mm 0.0 W/m2 OVC
08:58 16.9 °C 8.8 °C 1014.8 hPa ESE 1.8 km/h 1.9 km/h 59% 0 mm 0.0 W/m2 OVC
09:03 17.6 °C 9 °C 1014.8 hPa East 10.8 km/h 11.1 km/h 57% 0 mm 0.0 W/m2 OVC
09:08 18.1 °C 9.2 °C 1014.8 hPa ESE 2.9 km/h   56% 0 mm 0.0 W/m2 OVC
09:13 18.6 °C 9.1 °C 1014.8 hPa Calm     54% 0 mm 0.0 W/m2 OVC
09:18 19.1 °C 9 °C 1014.8 hPa ESE 1.1 km/h 3.7 km/h 52% 0 mm 0.0 W/m2 OVC
09:23 19.5 °C 9.4 °C 1014.8 hPa Calm     52% 0 mm 0.0 W/m2 OVC
09:28 20.1 °C 9.1 °C 1014.8 hPa Calm   4 km/h 49% 0 mm 0.0 W/m2 OVC
09:33 20.3 °C 8.6 °C 1014.8 hPa Calm     47% 0 mm 0.0 W/m2 OVC
09:38 20.4 °C 8.7 °C 1014.8 hPa Calm     47% 0 mm 0.0 W/m2 OVC
09:43 20.7 °C 9 °C 1014.8 hPa Calm     47% 0 mm 0.0 W/m2 OVC
09:48 20.8 °C 8.8 °C 1014.8 hPa Calm     46% 0 mm 0.0 W/m2 OVC
09:53 20.7 °C 8.3 °C 1014.8 hPa SW 15.3 km/h 16.7 km/h 45% 0 mm 0.0 W/m2 OVC
09:58 21.1 °C 8 °C 1014.8 hPa WNW 0.3 km/h 13 km/h 43% 0 mm 0.0 W/m2 OVC
09:59 21.1 °C 8 °C 1014.8 hPa WNW 4 km/h 7.4 km/h 43% 0 mm 0.0 W/m2 OVC
10:04 21.1 °C 8.4 °C 1014.8 hPa Calm     44% 0 mm 0.0 W/m2 CLR
10:05 21.3 °C 8.6 °C 1014.8 hPa Calm     44% 0 mm 0.0 W/m2 CLR
10:15 21.5 °C 8.4 °C 1014.8 hPa SW 5.5 km/h 5.6 km/h 43% 0 mm 0.0 W/m2 CLR
10:20 21.8 °C 8.3 °C 1014.8 hPa SW 12.9 km/h 12.9 km/h 42% 0 mm 0.0 W/m2 CLR
10:25 21.6 °C 8.1 °C 1014.8 hPa West 5.6 km/h 7.4 km/h 42% 0 mm 0.0 W/m2 CLR
10:30 21.8 °C 7.6 °C 1014.8 hPa WNW 15.1 km/h 22.2 km/h 40% 0 mm 0.0 W/m2 CLR
10:35 21.6 °C 8.1 °C 1014.8 hPa Calm   22.5 km/h 42% 0 mm 0.0 W/m2 CLR
10:40 21.9 °C 8.1 °C 1014.8 hPa Calm     41% 0 mm 0.0 W/m2 CLR
10:45 21.9 °C 8.1 °C 1014.4 hPa WSW 6.4 km/h 6.4 km/h 41% 0 mm 0.0 W/m2 CLR
10:50 21.8 °C 7.9 °C 1014.4 hPa WSW 10.5 km/h 11.1 km/h 41% 0 mm 0.0 W/m2 CLR
10:55 21.7 °C 7.9 °C 1014.4 hPa Calm     41% 0 mm 0.0 W/m2 CLR
11:00 21.8 °C 7.9 °C 1014.4 hPa WSW 11.6 km/h 11.6 km/h 41% 0 mm 0.0 W/m2 CLR
11:05 21.9 °C 7.7 °C 1014.4 hPa Calm   20.9 km/h 40% 0 mm 0.0 W/m2 CLR
11:10 21.9 °C 8.1 °C 1014.4 hPa SSW 11.7 km/h 18.5 km/h 41% 0 mm 0.0 W/m2 CLR
11:15 21.8 °C 7.9 °C 1014.4 hPa WSW 9.7 km/h 9.7 km/h 41% 0 mm 0.0 W/m2 CLR
11:20 21.8 °C 7.9 °C 1014.4 hPa Calm   9.3 km/h 41% 0 mm 0.0 W/m2 CLR
11:25 21.8 °C 7.9 °C 1014.4 hPa South 1 km/h 1.9 km/h 41% 0 mm 0.0 W/m2 CLR
11:30 21.8 °C 7.6 °C 1014.4 hPa Calm   5.6 km/h 40% 0 mm 0.0 W/m2 CLR
11:35 21.8 °C 7.6 °C 1014.4 hPa Calm     40% 0 mm 0.0 W/m2 CLR
11:40 21.8 °C 7.6 °C 1014.1 hPa Calm     40% 0 mm 0.0 W/m2 CLR
11:45 21.9 °C 7.7 °C 1014.1 hPa Calm   7.4 km/h 40% 0 mm 0.0 W/m2 CLR
11:50 22.1 °C 7.5 °C 1014.4 hPa Calm     39% 0 mm 0.0 W/m2 CLR
11:55 22.1 °C 7.5 °C 1014.1 hPa SSE 1.3 km/h 11.1 km/h 39% 0 mm 0.0 W/m2 CLR
12:00 22.1 °C 7.1 °C 1014.1 hPa Calm     38% 0 mm 0.0 W/m2 CLR
12:05 22.1 °C 6.7 °C 1014.1 hPa SW 9.7 km/h 11.3 km/h 37% 0 mm 0.0 W/m2 FEW
12:10 22 °C 6.6 °C 1014.1 hPa WSW 11.3 km/h 11.3 km/h 37% 0 mm 0.0 W/m2 FEW
12:15 22.2 °C 6.4 °C 1014.1 hPa WSW 12.9 km/h 14.5 km/h 36% 0 mm 0.0 W/m2 FEW
12:20 22.3 °C 6.5 °C 1014.1 hPa West 28.5 km/h 31.5 km/h 36% 0 mm 0.0 W/m2 FEW
12:25 22.3 °C 6.5 °C 1014.1 hPa Calm     36% 0 mm 0.0 W/m2 FEW
12:30 22.8 °C 6.1 °C 1014.1 hPa SW 11.1 km/h 11.1 km/h 34% 0 mm 0.0 W/m2 FEW
12:35 22.9 °C 5.8 °C 1013.8 hPa Calm   11.3 km/h 33% 0 mm 0.0 W/m2 FEW
12:40 23.1 °C 5.4 °C 1014.1 hPa WSW 25.7 km/h 25.7 km/h 32% 0 mm 0.0 W/m2 FEW
12:45 23 °C 4.5 °C 1014.1 hPa WSW 12.9 km/h 33.8 km/h 30% 0 mm 0.0 W/m2 FEW
12:50 22.8 °C 4.3 °C 1014.1 hPa SW 8.9 km/h 16.9 km/h 30% 0 mm 0.0 W/m2 FEW
12:55 22.6 °C 4.6 °C 1014.1 hPa SSW 13.7 km/h 20.4 km/h 31% 0 mm 0.0 W/m2 FEW
13:00 22.4 °C 4.4 °C 1014.1 hPa Calm     31% 0 mm 0.0 W/m2 FEW
13:05 22.2 °C 4.3 °C 1014.1 hPa WNW 5.1 km/h 26.6 km/h 31% 0 mm 0.0 W/m2 CLR
13:10 21.9 °C 3.6 °C 1014.1 hPa WNW 13.2 km/h 13.4 km/h 30% 0 mm 0.0 W/m2 CLR
13:15 21.9 °C 4.4 °C 1013.8 hPa Calm   14.8 km/h 32% 0 mm 0.0 W/m2 CLR
13:20 22 °C 4.6 °C 1013.8 hPa Calm     32% 0 mm 0.0 W/m2 CLR
13:25 22.3 °C 4.8 °C 1013.8 hPa WSW 16.9 km/h 16.9 km/h 32% 0 mm 0.0 W/m2 CLR
13:30 22.3 °C 4.3 °C 1013.8 hPa SW 10.1 km/h 10.1 km/h 31% 0 mm 0.0 W/m2 CLR
13:35 22.4 °C 4.9 °C 1013.8 hPa SW 13.8 km/h 24.1 km/h 32% 0 mm 0.0 W/m2 CLR
13:40 22.5 °C 5 °C 1013.8 hPa Calm     32% 0 mm 0.0 W/m2 CLR
13:45 22.4 °C 4.4 °C 1013.8 hPa SW 15.4 km/h 15.4 km/h 31% 0 mm 0.0 W/m2 CLR
13:50 22.7 °C 4.2 °C 1013.8 hPa Calm     30% 0 mm 0.0 W/m2 CLR
13:55 22.6 °C 3.7 °C 1013.8 hPa Calm     29% 0 mm 0.0 W/m2 CLR
14:00 22.8 °C 4.3 °C 1013.8 hPa SW 4.2 km/h 7.4 km/h 30% 0 mm 0.0 W/m2 CLR
14:05 22.7 °C 2.2 °C 1013.8 hPa WNW 4.2 km/h 5.6 km/h 26% 0 mm 0.0 W/m2 CLR
14:06 22.7 °C 2.2 °C 1013.8 hPa WNW 5.5 km/h 5.6 km/h 26% 0 mm 0.0 W/m2 CLR
14:11 22.6 °C 2.7 °C 1013.8 hPa Calm     27% 0 mm 0.0 W/m2 CLR
14:16 22.8 °C 3.3 °C 1013.4 hPa South 7.4 km/h 7.4 km/h 28% 0 mm 0.0 W/m2 CLR
14:21 22.8 °C 3.8 °C 1013.4 hPa Calm     29% 0 mm 0.0 W/m2 CLR
14:26 22.9 °C 3.4 °C 1013.4 hPa SW 15.3 km/h 15.3 km/h 28% 0 mm 0.0 W/m2 CLR
14:31 23 °C 3.5 °C 1013.4 hPa SW 6.6 km/h 9.3 km/h 28% 0 mm 0.0 W/m2 CLR
14:36 22.9 °C 1.8 °C 1013.4 hPa WSW 13.7 km/h 13.7 km/h 25% 0 mm 0.0 W/m2 CLR
14:41 22.6 °C 2.1 °C 1013.4 hPa WSW 7.9 km/h 14.8 km/h 26% 0 mm 0.0 W/m2 CLR
14:46 22.6 °C 2.1 °C 1013.4 hPa West 9 km/h 9.3 km/h 26% 0 mm 0.0 W/m2 CLR
14:51 22.3 °C 1.3 °C 1013.4 hPa WNW 10.5 km/h 11.1 km/h 25% 0 mm 0.0 W/m2 CLR
14:56 21.9 °C 0.9 °C 1013.4 hPa WNW 9 km/h 9 km/h 25% 0 mm 0.0 W/m2 CLR
15:01 21.9 °C 2.6 °C 1013.1 hPa West 1 km/h 1.9 km/h 28% 0 mm 0.0 W/m2 CLR
15:06 21.9 °C 2.6 °C 1013.1 hPa SW 5.6 km/h 5.6 km/h 28% 0 mm 0.0 W/m2 CLR
15:11 21.9 °C 2.6 °C 1013.1 hPa Calm     28% 0 mm 0.0 W/m2 CLR
15:16 21.9 °C 2.6 °C 1013.1 hPa West 1.4 km/h 3.7 km/h 28% 0 mm 0.0 W/m2 CLR
15:19 21.8 °C 2.4 °C 1013.1 hPa WNW 11.9 km/h 11.9 km/h 28% 0 mm 0.0 W/m2 CLR
15:24 21.6 °C 1.8 °C 1013.1 hPa WSW 11.9 km/h 13 km/h 27% 0 mm 0.0 W/m2 CLR
15:29 21.6 °C 2.3 °C 1013.1 hPa SW 0.6 km/h 3.7 km/h 28% 0 mm 0.0 W/m2 CLR
15:34 21.5 °C 2.7 °C 1013.1 hPa West 0.6 km/h 11.1 km/h 29% 0 mm 0.0 W/m2 CLR
15:39 21.4 °C 2.6 °C 1013.1 hPa Calm     29% 0 mm 0.0 W/m2 CLR
15:44 21.3 °C 2.6 °C 1013.4 hPa Calm     29% 0 mm 0.0 W/m2 CLR
15:48 21.4 °C 2.6 °C 1013.4 hPa SW 3.2 km/h 3.7 km/h 29% 0 mm 0.0 W/m2 CLR
15:54 21.3 °C 2.6 °C 1013.1 hPa Calm     29% 0 mm 0.0 W/m2 CLR
15:59 21.4 °C 3.1 °C 1013.4 hPa Calm     30% 0 mm 0.0 W/m2 CLR
16:04 21.3 °C 3 °C 1013.1 hPa Calm     30% 0 mm 0.0 W/m2 CLR
16:09 21.3 °C 3.5 °C 1013.1 hPa Calm     31% 0 mm 0.0 W/m2 CLR
16:14 21.3 °C 3.5 °C 1013.1 hPa Calm     31% 0 mm 0.0 W/m2 CLR
16:19 21.1 °C 3.8 °C 1013.1 hPa Calm     32% 0 mm 0.0 W/m2 CLR
16:24 21 °C 3.2 °C 1013.1 hPa West 2.3 km/h 3.7 km/h 31% 0 mm 0.0 W/m2 CLR
16:29 20.9 °C 3.1 °C 1013.1 hPa NW 4.7 km/h 5.6 km/h 31% 0 mm 0.0 W/m2 CLR
16:34 20.9 °C 3.6 °C 1013.1 hPa West 2.9 km/h 3.7 km/h 32% 0 mm 0.0 W/m2 CLR
16:39 20.8 °C 3.5 °C 1013.1 hPa Calm     32% 0 mm 0.0 W/m2 CLR
16:44 20.9 °C 3.6 °C 1013.1 hPa Calm     32% 0 mm 0.0 W/m2 CLR
16:49 20.9 °C 3.6 °C 1013.1 hPa Calm     32% 0 mm 0.0 W/m2 CLR
16:54 20.9 °C 3.1 °C 1013.1 hPa Calm     31% 0 mm 0.0 W/m2 CLR
16:59 20.9 °C 3.6 °C 1013.1 hPa NW 1.1 km/h 3.7 km/h 32% 0 mm 0.0 W/m2 CLR
17:04 20.6 °C 3.3 °C 1012.8 hPa Calm     32% 0 mm 0.0 W/m2 CLR
17:09 20.4 °C 3.2 °C 1012.8 hPa Calm     32% 0 mm 0.0 W/m2 CLR
17:14 20.3 °C 3.1 °C 1012.8 hPa Calm     32% 0 mm 0.0 W/m2 CLR
17:19 20.3 °C 3.1 °C 1012.8 hPa Calm     32% 0 mm 0.0 W/m2 CLR
17:24 20.1 °C 2.9 °C 1012.8 hPa Calm     32% 0 mm 0.0 W/m2 CLR
17:29 20.1 °C 3.3 °C 1012.8 hPa Calm     33% 0 mm 0.0 W/m2 CLR
17:34 20.1 °C 3.3 °C 1013.1 hPa Calm     33% 0 mm 0.0 W/m2 CLR
17:39 19.9 °C 3.1 °C 1012.8 hPa Calm     33% 0 mm 0.0 W/m2 CLR
17:44 19.9 °C 3.1 °C 1012.8 hPa Calm     33% 0 mm 0.0 W/m2 CLR
17:49 19.9 °C 3.1 °C 1012.8 hPa Calm     33% 0 mm 0.0 W/m2 CLR
17:54 19.9 °C 3.1 °C 1012.8 hPa Calm     33% 0 mm 0.0 W/m2 CLR
17:59 19.9 °C 3.1 °C 1012.8 hPa Calm     33% 0 mm 0.0 W/m2 CLR
18:04 19.9 °C 3.1 °C 1012.8 hPa Calm     33% 0 mm 0.0 W/m2 CLR
18:09 19.8 °C 3.1 °C 1012.8 hPa Calm     33% 0 mm 0.0 W/m2 CLR
18:14 19.8 °C 3.1 °C 1012.8 hPa Calm     33% 0 mm 0.0 W/m2 CLR
18:19 19.6 °C 2.9 °C 1012.8 hPa Calm     33% 0 mm 0.0 W/m2 CLR
18:24 19.6 °C 2.9 °C 1012.8 hPa Calm     33% 0 mm 0.0 W/m2 CLR
18:29 19.5 °C 2.8 °C 1012.8 hPa Calm     33% 0 mm 0.0 W/m2 CLR
18:34 19.4 °C 2.7 °C 1012.8 hPa Calm     33% 0 mm 0.0 W/m2 CLR
18:39 19.3 °C 3.4 °C 1012.8 hPa Calm     35% 0 mm 0.0 W/m2 CLR
18:44 19 °C 3.6 °C 1012.8 hPa Calm     36% 0 mm 0.0 W/m2 CLR
18:49 19 °C 3.6 °C 1012.8 hPa Calm     36% 0 mm 0.0 W/m2 CLR
18:54 18.8 °C 3.8 °C 1012.8 hPa Calm     37% 0 mm 0.0 W/m2 CLR
18:59 18.6 °C 3.6 °C 1012.8 hPa Calm     37% 0 mm 0.0 W/m2 CLR
19:04 18.4 °C 3.4 °C 1012.8 hPa Calm     37% 0 mm 0.0 W/m2 CLR
19:09 18.2 °C 3.6 °C 1012.8 hPa Calm     38% 0 mm 0.0 W/m2 CLR
19:14 17.8 °C 3.7 °C 1012.8 hPa Calm     39% 0 mm 0.0 W/m2 CLR
19:19 17.6 °C 3.4 °C 1012.8 hPa Calm     39% 0 mm 0.0 W/m2 CLR
19:24 17.6 °C 3.4 °C 1012.8 hPa Calm     39% 0 mm 0.0 W/m2 CLR
19:29 17.5 °C 3.4 °C 1012.8 hPa Calm     39% 0 mm 0.0 W/m2 CLR
19:34 17.3 °C 3.6 °C 1012.8 hPa Calm     40% 0 mm 0.0 W/m2 CLR
19:39 17.1 °C 3.7 °C 1012.8 hPa Calm     41% 0 mm 0.0 W/m2 CLR
19:44 17 °C 3.7 °C 1012.8 hPa Calm     41% 0 mm 0.0 W/m2 CLR
19:49 16.5 °C 3.6 °C 1012.8 hPa Calm     42% 0 mm 0.0 W/m2 CLR
19:54 16.3 °C 3.3 °C 1012.8 hPa Calm     42% 0 mm 0.0 W/m2 CLR
19:59 16.3 °C 3.3 °C 1012.8 hPa Calm     42% 0 mm 0.0 W/m2 CLR
20:04 16.2 °C 3.3 °C 1013.1 hPa Calm     42% 0 mm 0.0 W/m2 CLR
20:09 16.1 °C 3.5 °C 1013.1 hPa Calm     43% 0 mm 0.0 W/m2 CLR
20:14 15.9 °C 3.7 °C 1013.1 hPa Calm     44% 0 mm 0.0 W/m2 CLR
20:20 15.8 °C 3.9 °C 1013.1 hPa Calm     45% 0 mm 0.0 W/m2 CLR
20:22 15.8 °C 3.9 °C 1013.1 hPa Calm     45% 0 mm 0.0 W/m2 CLR
20:23 15.6 °C 3.7 °C 1012.8 hPa Calm     45% 0 mm 0.0 W/m2 CLR
20:26 15.6 °C 3.7 °C 1012.8 hPa Calm     45% 0 mm 0.0 W/m2 CLR
20:31 15.5 °C 3.6 °C 1012.8 hPa Calm     45% 0 mm 0.0 W/m2 CLR
20:32 15.4 °C 3.5 °C 1012.8 hPa Calm     45% 0 mm 0.0 W/m2 CLR
20:34 15.4 °C 3.5 °C 1012.8 hPa Calm     45% 0 mm 0.0 W/m2 CLR
20:37 15.3 °C 3.1 °C 1012.8 hPa Calm     44% 0 mm 0.0 W/m2 CLR
20:42 15.2 °C 3 °C 1012.8 hPa Calm     44% 0 mm 0.0 W/m2 CLR
20:47 14.9 °C 3.1 °C 1012.8 hPa Calm     45% 0 mm 0.0 W/m2 CLR
20:52 14.6 °C 3.1 °C 1012.8 hPa Calm     46% 0 mm 0.0 W/m2 CLR
20:57 14.2 °C 3.1 °C 1013.1 hPa Calm     47% 0 mm 0.0 W/m2 CLR
21:02 13.9 °C 2.8 °C 1012.8 hPa Calm     47% 0 mm 0.0 W/m2 CLR
21:07 13.9 °C 2.8 °C 1012.8 hPa Calm     47% 0 mm 0.0 W/m2 CLR
21:12 13.8 °C 2.9 °C 1012.8 hPa Calm     48% 0 mm 0.0 W/m2 CLR
21:17 13.5 °C 2.7 °C 1012.8 hPa Calm     48% 0 mm 0.0 W/m2 CLR
21:22 13.4 °C 2.6 °C 1012.8 hPa Calm     48% 0 mm 0.0 W/m2 CLR
21:27 13.1 °C 2.6 °C 1012.8 hPa Calm     49% 0 mm 0.0 W/m2 CLR
21:32 12.9 °C 2.4 °C 1012.8 hPa Calm     49% 0 mm 0.0 W/m2 CLR
21:37 12.6 °C 2.2 °C 1013.1 hPa Calm     49% 0 mm 0.0 W/m2 CLR
21:42 12.3 °C 2.2 °C 1013.1 hPa Calm     50% 0 mm 0.0 W/m2 CLR
21:47 11.9 °C 2.6 °C 1013.1 hPa Calm     53% 0 mm 0.0 W/m2 CLR
21:52 11.5 °C 3.3 °C 1013.1 hPa Calm     57% 0 mm 0.0 W/m2 CLR
21:57 11.3 °C 2.8 °C 1013.1 hPa Calm     56% 0 mm 0.0 W/m2 CLR
22:02 11.3 °C 2.8 °C 1013.1 hPa Calm     56% 0 mm 0.0 W/m2 CLR
22:07 10.9 °C 2.7 °C 1013.4 hPa Calm     57% 0 mm 0.0 W/m2 CLR
22:12 10.8 °C 2.6 °C 1013.4 hPa Calm     57% 0 mm 0.0 W/m2 CLR
22:17 10.6 °C 2.2 °C 1013.4 hPa Calm     56% 0 mm 0.0 W/m2 CLR
22:22 10.4 °C 2 °C 1013.4 hPa Calm     56% 0 mm 0.0 W/m2 CLR
22:27 10.3 °C 1.9 °C 1013.4 hPa Calm     56% 0 mm 0.0 W/m2 CLR
22:32 10.1 °C 1.7 °C 1013.4 hPa Calm     56% 0 mm 0.0 W/m2 CLR
22:37 10.1 °C 1.9 °C 1013.4 hPa Calm     57% 0 mm 0.0 W/m2 CLR
22:42 9.8 °C 1.9 °C 1013.4 hPa Calm     58% 0 mm 0.0 W/m2 CLR
22:47 9.3 °C 1.7 °C 1013.1 hPa Calm     59% 0 mm 0.0 W/m2 CLR
22:52 9 °C 1.7 °C 1013.4 hPa Calm     60% 0 mm 0.0 W/m2 CLR
22:57 8.8 °C 1.4 °C 1013.4 hPa Calm     60% 0 mm 0.0 W/m2 CLR
23:02 8.7 °C 1.6 °C 1013.4 hPa Calm     61% 0 mm 0.0 W/m2 CLR
23:07 8.7 °C 1.6 °C 1013.4 hPa Calm     61% 0 mm 0.0 W/m2 CLR
23:12 8.6 °C 1.7 °C 1013.1 hPa Calm     62% 0 mm 0.0 W/m2 CLR
23:17 8.1 °C 1.7 °C 1013.4 hPa Calm     64% 0 mm 0.0 W/m2 CLR
23:22 7.9 °C 1.9 °C 1013.8 hPa Calm     66% 0 mm 0.0 W/m2 CLR
23:27 7.3 °C 1.2 °C 1013.4 hPa Calm     65% 0 mm 0.0 W/m2 CLR
23:32 7.1 °C 1.2 °C 1013.8 hPa Calm     66% 0 mm 0.0 W/m2 CLR
23:37 7.2 °C 1.3 °C 1013.4 hPa Calm     66% 0 mm 0.0 W/m2 CLR
23:42 7.2 °C 1.3 °C 1013.8 hPa Calm     66% 0 mm 0.0 W/m2 CLR
23:47 7.1 °C 1.4 °C 1013.8 hPa Calm     67% 0 mm 0.0 W/m2 CLR
23:52 6.9 °C 1.2 °C 1013.4 hPa Calm     67% 0 mm 0.0 W/m2 CLR
23:57 6.6 °C 0.9 °C 1013.8 hPa Calm     67% 0 mm 0.0 W/m2 CLR
Fernwood Weather
Compliments of Weather Underground - 3.75 mb